Time;durP1;ratioP1;P1;durP2;ratioP2;P2;SDS_P1;SDS_P2;PMS_P1;PMS_P2;Temp;Humidity;BMP_temperature;BMP_pressure;BME280_temperature;BME280_humidity;BME280_pressure;Samples;Min_cycle;Max_cycle;Signal;HPM_P1;HPM_P2
2022/11/19 00:00:34;;;;;;;6.53;5.93;;;;;;;-2.81;100.00;97822.72;15304354;19;20066;-81
2022/11/19 00:06:05;;;;;;;7.40;6.70;;;;;;;-2.82;100.00;97830.69;15299547;19;20460;-82
2022/11/19 00:17:12;;;;;;;7.22;6.38;;;;;;;-2.85;100.00;97842.28;15301744;19;20082;-81
2022/11/19 00:22:36;;;;;;;7.00;6.40;;;;;;;-2.86;100.00;97843.22;15305983;19;20442;-81
2022/11/19 00:28:05;;;;;;;7.57;6.88;;;;;;;-2.87;100.00;97845.94;15305735;19;20010;-81
2022/11/19 00:33:29;;;;;;;8.10;7.40;;;;;;;-2.88;100.00;97844.25;15302767;19;20025;-81
2022/11/19 00:38:54;;;;;;;7.78;7.07;;;;;;;-2.92;100.00;97856.78;15304159;19;20011;-82
2022/11/19 00:44:21;;;;;;;7.60;6.90;;;;;;;-2.91;100.00;97871.66;15288506;19;20014;-81
2022/11/19 00:49:54;;;;;;;7.07;6.47;;;;;;;-2.91;100.00;97870.78;15296201;19;20018;-82
2022/11/19 00:55:18;;;;;;;7.25;6.55;;;;;;;-2.94;100.00;97862.09;15293018;19;20014;-80
2022/11/19 01:00:53;;;;;;;7.15;6.45;;;;;;;-2.97;100.00;97866.72;15292397;19;20363;-80
2022/11/19 01:06:20;;;;;;;6.82;6.22;;;;;;;-2.96;100.00;97871.06;15303625;19;20020;-80
2022/11/19 01:11:39;;;;;;;6.45;5.85;;;;;;;-2.98;100.00;97888.75;15301847;19;20294;-79
2022/11/19 01:17:07;;;;;;;6.57;5.97;;;;;;;-2.98;100.00;97891.38;15297628;19;20078;-78
2022/11/19 01:22:32;;;;;;;6.70;6.10;;;;;;;-3.05;100.00;97890.88;15303837;19;20014;-80
2022/11/19 01:27:57;;;;;;;6.20;5.60;;;;;;;-3.06;100.00;97883.06;15308214;19;20081;-79
2022/11/19 01:33:25;;;;;;;5.75;5.25;;;;;;;-3.12;100.00;97886.91;15304781;19;20020;-81
2022/11/19 01:38:51;;;;;;;7.25;5.75;;;;;;;-3.17;100.00;97879.28;15309742;19;20467;-80
2022/11/19 01:44:30;;;;;;;6.00;5.50;;;;;;;-3.20;100.00;97881.25;15300717;19;20018;-80
2022/11/19 01:49:58;;;;;;;5.53;5.13;;;;;;;-3.23;100.00;97890.16;15302964;19;20014;-80
2022/11/19 01:55:18;;;;;;;7.22;5.55;;;;;;;-3.27;100.00;97886.00;15304104;19;20078;-79
2022/11/19 02:00:44;;;;;;;6.18;5.57;;;;;;;-3.32;100.00;97885.41;15308833;19;20091;-79
2022/11/19 02:06:13;;;;;;;6.47;5.88;;;;;;;-3.33;100.00;97886.34;15304701;19;20074;-80
2022/11/19 02:12:03;;;;;;;6.03;5.43;;;;;;;-3.39;100.00;97891.97;15304290;19;20025;-78
2022/11/19 02:17:44;;;;;;;6.20;5.70;;;;;;;-3.43;100.00;97894.78;15300278;19;20739;-80
2022/11/19 02:23:42;;;;;;;6.38;5.78;;;;;;;-3.44;100.00;97884.34;15296613;19;20074;-79
2022/11/19 02:29:19;;;;;;;6.32;5.82;;;;;;;-3.54;100.00;97884.00;15305596;19;20014;-80
2022/11/19 02:34:51;;;;;;;6.30;5.70;;;;;;;-3.64;100.00;97881.03;15303689;19;20019;-81
2022/11/19 02:40:24;;;;;;;6.95;6.25;;;;;;;-3.68;100.00;97883.91;15307133;19;20014;-83
2022/11/19 02:45:53;;;;;;;6.50;5.90;;;;;;;-3.77;100.00;97901.09;15305631;19;20450;-81
2022/11/19 02:51:21;;;;;;;6.97;6.20;;;;;;;-3.84;100.00;97904.97;15296616;19;20664;-65
2022/11/19 02:56:57;;;;;;;7.18;6.45;;;;;;;-3.91;100.00;97896.56;15276847;19;20029;-64
2022/11/19 03:08:05;;;;;;;7.20;6.50;;;;;;;-3.98;100.00;97905.75;15285333;19;20029;-63
2022/11/19 03:19:22;;;;;;;7.85;7.10;;;;;;;-4.04;100.00;97910.38;15282280;19;20010;-62
2022/11/19 03:24:57;;;;;;;8.18;7.38;;;;;;;-4.08;100.00;97921.16;15278131;19;20022;-63
2022/11/19 03:30:24;;;;;;;8.07;6.85;;;;;;;-4.11;100.00;97913.41;15280663;19;20018;-62
2022/11/19 03:35:53;;;;;;;8.10;7.20;;;;;;;-4.13;100.00;97916.16;15278146;19;20081;-63
2022/11/19 03:41:25;;;;;;;8.15;7.25;;;;;;;-4.14;100.00;97922.34;15281934;19;20018;-62
2022/11/19 03:46:55;;;;;;;9.75;7.55;;;;;;;-4.14;100.00;97932.84;15281934;19;20035;-61
2022/11/19 03:52:29;;;;;;;8.40;7.60;;;;;;;-4.18;100.00;97940.06;15277772;19;20017;-63
2022/11/19 03:58:02;;;;;;;8.15;7.30;;;;;;;-4.23;100.00;97943.88;15277209;19;20746;-63
2022/11/19 04:03:27;;;;;;;8.05;7.18;;;;;;;-4.32;100.00;97939.09;15277232;19;20099;-62
2022/11/19 04:08:52;;;;;;;10.20;7.32;;;;;;;-4.43;100.00;97943.13;15282247;19;20043;-63
2022/11/19 04:14:19;;;;;;;8.00;7.20;;;;;;;-4.52;100.00;97946.22;15278835;19;20016;-65
2022/11/19 04:19:44;;;;;;;9.00;7.50;;;;;;;-4.58;100.00;97951.81;15280163;19;20026;-62
2022/11/19 04:25:09;;;;;;;8.95;7.88;;;;;;;-4.66;100.00;97953.06;15279814;19;20018;-64
2022/11/19 04:30:36;;;;;;;9.98;7.88;;;;;;;-4.72;100.00;97953.34;15274529;19;20018;-62
2022/11/19 04:36:01;;;;;;;8.85;7.95;;;;;;;-4.79;100.00;97954.59;15278004;19;20526;-61
2022/11/19 04:41:26;;;;;;;8.77;7.70;;;;;;;-4.86;100.00;97955.81;15276109;19;20010;-62
2022/11/19 04:46:53;;;;;;;8.70;7.80;;;;;;;-4.92;100.00;97950.88;15270282;19;20024;-63
2022/11/19 04:52:18;;;;;;;8.98;8.07;;;;;;;-4.95;100.00;97952.72;15285277;19;20045;-63
2022/11/19 04:57:42;;;;;;;8.88;7.72;;;;;;;-5.01;100.00;97945.16;15287284;19;20093;-61
2022/11/19 05:03:10;;;;;;;9.55;8.23;;;;;;;-5.03;100.00;97959.28;15280850;19;20060;-61
2022/11/19 05:08:34;;;;;;;9.77;8.75;;;;;;;-5.07;100.00;97968.25;15291019;19;20014;-60
2022/11/19 05:13:59;;;;;;;9.90;8.35;;;;;;;-5.12;100.00;97960.59;15283144;19;20024;-61
2022/11/19 05:19:26;;;;;;;9.77;8.75;;;;;;;-5.18;100.00;97968.75;15283009;19;20375;-64
2022/11/19 05:24:51;;;;;;;12.43;9.32;;;;;;;-5.19;100.00;97980.19;15289810;19;20019;-61
2022/11/19 05:30:17;;;;;;;10.57;8.98;;;;;;;-5.23;100.00;97979.47;15289099;19;20027;-60
2022/11/19 05:35:44;;;;;;;10.70;8.73;;;;;;;-5.27;100.00;97984.03;15283199;19;20379;-57
2022/11/19 05:41:09;;;;;;;9.77;8.38;;;;;;;-5.32;100.00;97991.28;15288399;19;20018;-60
2022/11/19 05:46:34;;;;;;;11.73;9.70;;;;;;;-5.35;100.00;97988.78;15288390;19;20022;-61
2022/11/19 05:52:02;;;;;;;10.32;9.23;;;;;;;-5.38;100.00;97994.19;15284710;19;20475;-59
2022/11/19 05:57:28;;;;;;;11.35;8.63;;;;;;;-5.44;100.00;97994.47;15285059;19;20015;-57
2022/11/19 06:02:52;;;;;;;10.40;8.88;;;;;;;-5.48;100.00;97985.06;15284236;19;20010;-53
2022/11/19 06:08:20;;;;;;;9.70;8.70;;;;;;;-5.55;100.00;97984.50;15282605;19;20034;-61
2022/11/19 06:13:45;;;;;;;10.32;8.90;;;;;;;-5.61;100.00;97990.88;15278532;19;20036;-60
2022/11/19 06:19:11;;;;;;;11.45;10.23;;;;;;;-5.65;100.00;98005.03;15281515;19;20476;-58
2022/11/19 06:24:39;;;;;;;14.30;10.90;;;;;;;-5.64;100.00;98013.75;15276681;19;20039;-59
2022/11/19 06:30:04;;;;;;;13.38;11.07;;;;;;;-5.64;100.00;97998.00;15283225;19;20090;-61
2022/11/19 06:35:28;;;;;;;16.60;11.32;;;;;;;-5.63;100.00;98012.84;15282334;19;20022;-59
2022/11/19 06:40:55;;;;;;;14.70;10.23;;;;;;;-5.62;100.00;98023.28;15276590;19;20102;-61
2022/11/19 06:46:21;;;;;;;14.93;11.40;;;;;;;-5.60;100.00;98015.34;15278885;19;20018;-60
2022/11/19 06:51:48;;;;;;;16.17;11.63;;;;;;;-5.55;100.00;98026.47;15279191;19;20100;-60
2022/11/19 06:57:16;;;;;;;16.88;12.50;;;;;;;-5.49;100.00;98041.09;15282252;19;20015;-59
2022/11/19 07:02:41;;;;;;;18.98;12.43;;;;;;;-5.45;100.00;98053.13;15275102;19;20034;-59
2022/11/19 07:08:06;;;;;;;19.35;12.25;;;;;;;-5.39;100.00;98067.75;15276496;19;20481;-61
2022/11/19 07:19:14;;;;;;;16.90;11.95;;;;;;;-5.24;100.00;98079.34;15280712;19;20105;-58
2022/11/19 07:24:39;;;;;;;15.52;11.52;;;;;;;-5.21;100.00;98069.56;15275521;19;20018;-58
2022/11/19 07:30:06;;;;;;;14.90;11.50;;;;;;;-5.14;100.00;98072.75;15278365;19;20018;-57
2022/11/19 07:35:24;;;;;;;13.40;11.00;;;;;;;-5.09;100.00;98068.13;15272512;19;20021;-60
2022/11/19 07:40:54;;;;;;;14.25;11.27;;;;;;;-5.03;100.00;98070.47;15276126;19;20377;-60
2022/11/19 07:46:22;;;;;;;12.52;10.98;;;;;;;-4.95;100.00;98064.84;15269207;19;20048;-60
2022/11/19 07:51:47;;;;;;;13.40;11.02;;;;;;;-4.92;100.00;98080.44;15271922;19;20018;-61
2022/11/19 07:57:12;;;;;;;14.75;11.38;;;;;;;-4.85;100.00;98084.50;15276274;19;20018;-63
2022/11/19 08:02:40;;;;;;;13.55;11.13;;;;;;;-4.79;100.00;98091.25;15270751;19;20014;-61
2022/11/19 08:08:04;;;;;;;13.98;10.63;;;;;;;-4.72;100.00;98090.00;15277604;19;20085;-59
2022/11/19 08:13:29;;;;;;;13.38;11.65;;;;;;;-4.67;100.00;98090.66;15274680;19;20470;-59
2022/11/19 08:18:56;;;;;;;14.85;11.45;;;;;;;-4.64;100.00;98087.03;15271321;19;20011;-59
2022/11/19 08:24:23;;;;;;;15.80;11.73;;;;;;;-4.61;100.00;98091.28;15269929;19;20539;-58
2022/11/19 08:29:48;;;;;;;16.10;11.50;;;;;;;-4.58;100.00;98094.59;15277991;19;20014;-60
2022/11/19 08:35:18;;;;;;;15.00;12.20;;;;;;;-4.59;100.00;98095.56;15278008;19;20081;-59
2022/11/19 08:40:43;;;;;;;15.13;11.65;;;;;;;-4.64;100.00;98087.84;15269395;19;20018;-59
2022/11/19 08:46:09;;;;;;;18.08;12.93;;;;;;;-4.71;100.00;98083.00;15274964;19;20094;-58
2022/11/19 08:51:36;;;;;;;17.90;12.95;;;;;;;-4.74;100.00;98077.88;15269093;19;20020;-58
2022/11/19 08:57:01;;;;;;;15.82;12.93;;;;;;;-4.74;100.00;98076.09;15275966;19;20015;-58
2022/11/19 09:02:25;;;;;;;17.40;13.20;;;;;;;-4.60;100.00;98085.09;15275218;19;20035;-59
2022/11/19 09:07:53;;;;;;;17.98;13.70;;;;;;;-4.45;100.00;98092.25;15277495;19;20014;-59
2022/11/19 09:13:17;;;;;;;16.20;13.25;;;;;;;-4.31;100.00;98093.34;15271732;19;20029;-61
2022/11/19 09:18:42;;;;;;;16.92;13.38;;;;;;;-4.16;100.00;98097.81;15275419;19;20016;-61
2022/11/19 09:24:10;;;;;;;15.10;12.52;;;;;;;-4.02;100.00;98087.44;15267332;19;20010;-60
2022/11/19 09:29:37;;;;;;;14.35;12.70;;;;;;;-3.89;100.00;98087.69;15276392;19;20017;-60
2022/11/19 09:35:01;;;;;;;14.25;11.45;;;;;;;-3.76;100.00;98101.06;15279051;19;20130;-61
2022/11/19 09:40:29;;;;;;;15.13;12.20;;;;;;;-3.61;100.00;98088.88;15286211;19;20090;-61
2022/11/19 09:46:06;;;;;;;12.93;11.57;;;;;;;-3.50;100.00;98085.69;15291149;19;20132;-64
2022/11/19 09:51:35;;;;;;;12.95;11.43;;;;;;;-3.38;100.00;98080.69;15289075;19;20015;-63
2022/11/19 09:57:04;;;;;;;14.38;11.00;;;;;;;-3.24;100.00;98070.25;15283718;19;20019;-62
2022/11/19 10:02:29;;;;;;;12.73;11.07;;;;;;;-3.14;100.00;98078.50;15286209;19;20356;-64
2022/11/19 10:08:09;;;;;;;12.10;10.40;;;;;;;-3.04;100.00;98068.31;15287922;19;20463;-63
2022/11/19 10:13:49;;;;;;;11.30;10.15;;;;;;;-2.91;100.00;98064.06;15283594;19;20007;-64
2022/11/19 10:19:27;;;;;;;9.95;9.05;;;;;;;-2.80;100.00;98053.75;15286180;19;20011;-64
2022/11/19 10:25:01;;;;;;;9.82;8.82;;;;;;;-2.72;100.00;98052.47;15287233;19;20020;-62
2022/11/19 10:30:31;;;;;;;8.45;7.57;;;;;;;-2.63;100.00;98044.03;15285971;19;20015;-62
2022/11/19 10:35:59;;;;;;;8.15;7.40;;;;;;;-2.50;100.00;98038.91;15288122;19;20014;-64
2022/11/19 10:41:29;;;;;;;8.23;7.30;;;;;;;-2.35;100.00;98031.91;15284441;19;20023;-64
2022/11/19 10:46:57;;;;;;;7.95;7.15;;;;;;;-2.25;100.00;98038.31;15286018;19;20025;-64
2022/11/19 10:52:32;;;;;;;7.95;7.15;;;;;;;-2.19;100.00;98043.25;15283217;19;20018;-63
2022/11/19 10:58:08;;;;;;;7.15;6.45;;;;;;;-2.12;100.00;98033.19;15280476;19;20018;-63
2022/11/19 11:03:40;;;;;;;7.35;6.68;;;;;;;-2.04;100.00;98036.22;15280386;19;20006;-60
2022/11/19 11:09:08;;;;;;;6.63;5.93;;;;;;;-1.99;100.00;98032.44;15284745;19;20026;-62
2022/11/19 11:20:27;;;;;;;7.00;6.28;;;;;;;-1.92;100.00;98028.50;15282418;19;20025;-60
2022/11/19 11:26:07;;;;;;;8.38;6.60;;;;;;;-1.84;100.00;98025.41;15284165;19;20101;-61
2022/11/19 11:31:35;;;;;;;8.30;6.40;;;;;;;-1.81;100.00;98014.63;15277158;19;20021;-61
2022/11/19 11:37:03;;;;;;;11.30;7.95;;;;;;;-1.77;100.00;98013.50;15281383;19;20039;-64
2022/11/19 11:42:31;;;;;;;12.35;8.25;;;;;;;-1.69;100.00;98016.50;15282324;19;20014;-61
2022/11/19 11:47:55;;;;;;;9.45;6.63;;;;;;;-1.62;100.00;98007.28;15285480;19;20085;-62
2022/11/19 11:53:34;;;;;;;11.68;8.65;;;;;;;-1.70;100.00;98014.81;15281448;19;20015;-62
2022/11/19 11:58:58;;;;;;;9.57;7.07;;;;;;;-1.53;100.00;98012.94;15298931;19;20046;-62
2022/11/19 12:04:23;;;;;;;7.82;6.00;;;;;;;-1.48;100.00;98003.78;15272686;19;20019;-65
2022/11/19 12:10:02;;;;;;;8.30;5.68;;;;;;;-1.37;100.00;98003.13;15274706;19;20018;-64
2022/11/19 12:15:40;;;;;;;7.22;5.75;;;;;;;-1.22;100.00;97992.50;15276432;19;20361;-64
2022/11/19 12:21:09;;;;;;;6.88;5.82;;;;;;;-1.07;100.00;97995.97;15271107;19;20011;-64
2022/11/19 12:26:48;;;;;;;7.10;6.00;;;;;;;-0.97;100.00;97989.97;15274893;19;20012;-63
2022/11/19 12:32:28;;;;;;;5.97;5.35;;;;;;;-0.82;100.00;97997.88;15274291;19;20487;-63
2022/11/19 12:38:10;;;;;;;5.95;4.90;;;;;;;-0.66;100.00;97988.00;15268324;19;20017;-61
2022/11/19 12:43:54;;;;;;;7.68;5.47;;;;;;;-0.57;100.00;97977.75;15272243;19;20013;-63
2022/11/19 12:49:40;;;;;;;10.60;6.25;;;;;;;-0.37;100.00;97989.66;15275475;19;20026;-62
2022/11/19 12:55:19;;;;;;;6.45;5.60;;;;;;;-0.20;100.00;97994.63;15274217;19;20010;-61
2022/11/19 13:00:54;;;;;;;6.85;5.10;;;;;;;-0.06;100.00;97987.56;15266490;19;20090;-63
2022/11/19 13:06:25;;;;;;;5.75;4.72;;;;;;;0.13;100.00;97976.53;15271681;19;20090;-61
2022/11/19 13:11:55;;;;;;;5.43;4.50;;;;;;;0.39;100.00;97968.56;15282163;19;20473;-63
2022/11/19 13:17:26;;;;;;;5.38;4.20;;;;;;;0.64;100.00;97961.53;14780124;19;10000225;-64
2022/11/19 13:22:55;;;;;;;4.43;3.78;;;;;;;0.86;100.00;97961.69;15287400;19;20050;-65
2022/11/19 13:28:31;;;;;;;4.43;3.50;;;;;;;0.88;100.00;97957.09;15291693;19;20383;-64
2022/11/19 13:34:04;;;;;;;3.58;3.10;;;;;;;0.94;100.00;97960.25;15280018;19;20018;-64
2022/11/19 13:39:35;;;;;;;3.38;3.08;;;;;;;0.98;100.00;97959.09;15279322;19;20011;-64
2022/11/19 13:45:01;;;;;;;3.60;2.97;;;;;;;1.01;100.00;97956.19;15285054;19;20021;-64
2022/11/19 13:50:34;;;;;;;3.47;3.17;;;;;;;1.24;100.00;97954.50;15282730;19;20078;-64
2022/11/19 13:56:11;;;;;;;3.90;3.53;;;;;;;1.53;100.00;97956.78;15278722;19;20028;-64
2022/11/19 14:01:54;;;;;;;5.07;3.25;;;;;;;1.68;100.00;97950.31;15282542;19;20020;-62
2022/11/19 14:07:49;;;;;;;3.47;3.17;;;;;;;1.89;100.00;97951.44;15286549;19;20362;-64
2022/11/19 14:13:31;;;;;;;3.50;3.20;;;;;;;1.94;100.00;97952.78;15278665;19;20021;-64
2022/11/19 14:31:08;;;;;;;3.40;3.10;;;;;;;1.77;100.00;97962.03;15283902;19;20621;-64
2022/11/19 14:36:46;;;;;;;3.50;3.20;;;;;;;1.52;100.00;97963.91;15283524;19;20102;-65
2022/11/19 14:42:24;;;;;;;3.55;3.25;;;;;;;1.33;100.00;97966.25;15279050;19;20020;-66
2022/11/19 14:47:49;;;;;;;3.78;3.42;;;;;;;1.06;100.00;97962.84;15279747;19;20030;-64
2022/11/19 14:53:25;;;;;;;3.78;3.47;;;;;;;0.85;100.00;97965.28;15279231;19;20038;-63
2022/11/19 14:58:58;;;;;;;3.83;3.53;;;;;;;0.59;100.00;97964.47;15281866;19;20010;-63
2022/11/19 15:04:24;;;;;;;3.78;3.47;;;;;;;0.28;100.00;97974.63;15278136;19;20021;-62
2022/11/19 15:10:11;;;;;;;3.97;3.55;;;;;;;-0.05;100.00;97976.00;15283812;19;20062;-63
2022/11/19 15:15:45;;;;;;;4.70;4.30;;;;;;;-0.43;100.00;97960.94;15275017;19;20034;-63
2022/11/19 15:21:28;;;;;;;5.20;4.75;;;;;;;-0.87;100.00;97974.38;15278017;19;20081;-62
2022/11/19 15:27:03;;;;;;;7.60;4.65;;;;;;;-1.19;100.00;97969.38;15281723;19;20014;-56
2022/11/19 15:32:44;;;;;;;4.97;4.57;;;;;;;-1.37;100.00;97973.19;15274918;19;20028;-60
2022/11/19 15:38:15;;;;;;;5.80;5.30;;;;;;;-1.60;100.00;97973.72;15280360;19;20025;-62
2022/11/19 15:43:46;;;;;;;7.07;6.47;;;;;;;-1.80;100.00;97968.78;15276403;19;20025;-62
2022/11/19 15:49:21;;;;;;;5.93;5.43;;;;;;;-1.95;100.00;97957.38;15275451;19;20011;-61
2022/11/19 15:54:52;;;;;;;7.60;6.80;;;;;;;-2.11;100.00;97966.22;15272680;19;20344;-61
2022/11/19 16:00:20;;;;;;;6.28;5.70;;;;;;;-2.25;100.00;97969.72;15276420;19;20018;-62
2022/11/19 16:05:47;;;;;;;8.30;6.38;;;;;;;-2.33;100.00;97977.25;15278902;19;20515;-61
2022/11/19 16:22:39;;;;;;;8.50;7.70;;;;;;;-2.67;100.00;97968.69;15266777;19;20007;-63
2022/11/19 16:28:07;;;;;;;8.23;7.30;;;;;;;-2.82;100.00;97986.22;15277867;19;20018;-63
2022/11/19 16:33:34;;;;;;;8.10;7.30;;;;;;;-2.96;100.00;97977.34;15272831;19;20040;-63
2022/11/19 16:39:04;;;;;;;7.78;7.03;;;;;;;-3.03;100.00;97983.88;15277008;19;20027;-63
2022/11/19 16:44:31;;;;;;;8.30;7.35;;;;;;;-3.16;100.00;97994.28;15277010;19;20018;-63
2022/11/19 16:50:06;;;;;;;9.32;7.90;;;;;;;-3.21;100.00;98001.56;15307036;19;20014;-62
2022/11/19 16:55:59;;;;;;;8.75;7.95;;;;;;;-3.27;100.00;97991.38;15290127;19;20113;-61
2022/11/19 17:01:24;;;;;;;8.52;7.72;;;;;;;-3.32;100.00;97993.41;15301226;19;20022;-61
2022/11/19 17:06:50;;;;;;;9.20;8.40;;;;;;;-3.40;100.00;97991.19;15304601;19;20019;-61
2022/11/19 17:12:31;;;;;;;9.98;9.00;;;;;;;-3.49;100.00;97989.94;15301933;19;20798;-60
2022/11/19 17:17:54;;;;;;;9.60;8.70;;;;;;;-3.57;100.00;97981.59;15301636;19;20022;-62
2022/11/19 17:23:22;;;;;;;9.50;8.65;;;;;;;-3.60;100.00;97993.16;15302330;19;20025;-63
2022/11/19 17:28:52;;;;;;;9.18;8.30;;;;;;;-3.63;100.00;98001.22;15300651;19;20014;-62
2022/11/19 17:34:25;;;;;;;9.57;8.68;;;;;;;-3.69;100.00;98004.19;15297640;19;20444;-62
2022/11/19 17:39:48;;;;;;;10.10;9.10;;;;;;;-3.77;100.00;98012.47;15304424;19;20019;-62
2022/11/19 17:45:16;;;;;;;10.10;9.10;;;;;;;-3.86;100.00;98010.34;15299970;19;20014;-61
2022/11/19 17:50:40;;;;;;;10.15;9.15;;;;;;;-3.95;100.00;98021.38;15300953;19;20089;-62
2022/11/19 17:56:12;;;;;;;9.73;8.73;;;;;;;-4.02;100.00;98010.31;15288641;19;20380;-62
2022/11/19 18:01:40;;;;;;;10.18;9.18;;;;;;;-4.08;100.00;98015.88;15276707;19;20344;-61
2022/11/19 18:07:04;;;;;;;10.45;9.35;;;;;;;-4.17;100.00;98019.81;15287175;19;20069;-62
2022/11/19 18:12:35;;;;;;;10.30;9.15;;;;;;;-4.29;100.00;98015.22;15280640;19;20018;-61
2022/11/19 18:18:03;;;;;;;9.75;8.82;;;;;;;-4.37;100.00;98013.81;15281026;19;20041;-62
2022/11/19 18:23:27;;;;;;;10.45;9.30;;;;;;;-4.47;100.00;98012.56;15280177;19;20021;-62
2022/11/19 18:28:52;;;;;;;11.60;10.38;;;;;;;-4.62;100.00;98021.22;15287171;19;20014;-62
2022/11/19 18:34:22;;;;;;;12.45;11.18;;;;;;;-4.68;100.00;98028.50;15278604;19;20027;-62
2022/11/19 18:39:46;;;;;;;11.48;10.10;;;;;;;-4.72;100.00;98036.63;15284764;19;20018;-62
2022/11/19 18:45:10;;;;;;;11.80;10.60;;;;;;;-4.85;100.00;98036.34;15283426;19;20049;-61
2022/11/19 18:50:38;;;;;;;11.10;10.00;;;;;;;-4.91;100.00;98031.41;15280920;19;20101;-61
2022/11/19 18:56:02;;;;;;;11.73;10.55;;;;;;;-4.96;100.00;98029.00;15281646;19;20030;-61
2022/11/19 19:01:27;;;;;;;13.70;12.30;;;;;;;-4.98;100.00;98028.22;15282936;19;20094;-63
2022/11/19 19:06:54;;;;;;;12.45;11.18;;;;;;;-5.01;100.00;98036.22;15283669;19;20034;-63
2022/11/19 19:12:20;;;;;;;12.02;10.55;;;;;;;-5.06;100.00;98023.31;15255270;19;20014;-63
2022/11/19 19:17:44;;;;;;;12.10;10.80;;;;;;;-5.11;100.00;98028.78;15278977;19;20058;-63
2022/11/19 19:23:12;;;;;;;12.43;10.38;;;;;;;-5.18;100.00;98032.66;15275508;19;20010;-62
2022/11/19 19:28:37;;;;;;;12.32;10.88;;;;;;;-5.24;100.00;98035.56;15282210;19;20088;-62
2022/11/19 19:34:02;;;;;;;14.95;13.35;;;;;;;-5.27;100.00;98041.81;15265190;19;20027;-63
2022/11/19 19:39:28;;;;;;;13.07;11.70;;;;;;;-5.31;100.00;98037.59;15278462;19;20010;-58
2022/11/19 19:44:53;;;;;;;13.25;11.93;;;;;;;-5.37;100.00;98045.78;15273538;19;20498;-62
2022/11/19 19:50:19;;;;;;;15.15;12.05;;;;;;;-5.43;100.00;98046.06;15280470;19;20038;-62
2022/11/19 19:55:54;;;;;;;13.70;12.05;;;;;;;-5.47;100.00;98049.75;15278989;19;20014;-63
2022/11/19 20:01:22;;;;;;;13.60;10.98;;;;;;;-5.51;100.00;98051.66;15276931;19;20041;-63
2022/11/19 20:06:52;;;;;;;12.30;10.73;;;;;;;-5.55;100.00;98051.88;15274246;19;20111;-62
2022/11/19 20:12:20;;;;;;;11.95;10.65;;;;;;;-5.55;100.00;98051.88;15280304;19;20090;-62
2022/11/19 20:17:51;;;;;;;11.43;10.23;;;;;;;-5.60;100.00;98052.94;15295017;19;20735;-60
2022/11/19 20:23:16;;;;;;;12.05;10.13;;;;;;;-5.63;100.00;98052.19;15274488;19;20018;-62
2022/11/19 20:28:44;;;;;;;18.73;16.35;;;;;;;-5.68;100.00;98059.44;15250660;19;20010;-63
2022/11/19 20:34:09;;;;;;;30.35;24.10;;;;;;;-5.76;100.00;98051.91;15267005;19;20059;-62
2022/11/19 20:39:34;;;;;;;16.80;14.52;;;;;;;-5.81;100.00;98048.63;15266073;19;20436;-64
2022/11/19 20:45:01;;;;;;;30.05;25.05;;;;;;;-5.88;100.00;98053.31;15269129;19;20018;-64
2022/11/19 20:50:27;;;;;;;13.90;12.18;;;;;;;-5.91;100.00;98056.91;15272039;19;20022;-61
2022/11/19 20:55:52;;;;;;;13.18;11.25;;;;;;;-5.94;100.00;98062.28;15268628;19;20420;-62
2022/11/19 21:01:26;;;;;;;14.80;12.50;;;;;;;-6.00;100.00;98057.34;15268644;19;20023;-63
2022/11/19 21:06:52;;;;;;;14.60;12.68;;;;;;;-6.07;100.00;98051.53;15271443;19;20022;-63
2022/11/19 21:12:17;;;;;;;16.38;13.80;;;;;;;-6.09;100.00;98045.50;15264832;19;20467;-62
2022/11/19 21:17:44;;;;;;;27.88;22.92;;;;;;;-6.10;100.00;98051.66;15273141;19;20036;-60
2022/11/19 21:23:09;;;;;;;18.13;15.13;;;;;;;-6.11;100.00;98051.72;15269937;19;20011;-61
2022/11/19 21:28:34;;;;;;;16.90;14.32;;;;;;;-6.13;100.00;98038.69;15273306;19;20043;-62
2022/11/19 21:34:02;;;;;;;18.95;14.77;;;;;;;-6.11;100.00;98038.63;15278817;19;20014;-61
2022/11/19 21:39:26;;;;;;;20.40;15.25;;;;;;;-6.13;100.00;98040.44;15285088;19;20022;-61
2022/11/19 21:44:51;;;;;;;21.60;14.73;;;;;;;-6.15;100.00;98037.03;15275209;19;20015;-63
2022/11/19 21:50:19;;;;;;;19.75;14.77;;;;;;;-6.12;100.00;98024.66;15288671;19;20031;-62
2022/11/19 21:55:52;;;;;;;30.40;23.40;;;;;;;-6.14;100.00;98023.88;15282606;19;20452;-61
2022/11/19 22:01:17;;;;;;;21.30;15.60;;;;;;;-6.20;100.00;98014.50;15285270;19;20019;-60
2022/11/19 22:06:45;;;;;;;96.47;19.70;;;;;;;-6.27;100.00;98017.47;15287228;19;20021;-61
2022/11/19 22:12:10;;;;;;;27.20;19.17;;;;;;;-6.34;100.00;98001.13;15283100;19;20007;-60
2022/11/19 22:17:35;;;;;;;20.75;15.93;;;;;;;-6.38;100.00;97992.56;15280461;19;20093;-61
2022/11/19 22:23:02;;;;;;;18.60;14.57;;;;;;;-6.39;100.00;97992.59;15280192;19;20824;-59
2022/11/19 22:28:27;;;;;;;15.38;12.85;;;;;;;-6.42;100.00;97995.38;15286343;19;20036;-57
2022/11/19 22:33:52;;;;;;;16.30;13.40;;;;;;;-6.45;100.00;97987.66;15279573;19;20038;-59
2022/11/19 22:39:20;;;;;;;16.40;13.60;;;;;;;-6.46;100.00;97996.41;15285664;19;20014;-61
2022/11/19 22:44:45;;;;;;;15.32;13.50;;;;;;;-6.48;100.00;97987.75;15278076;19;20011;-59
2022/11/19 22:50:10;;;;;;;16.92;13.60;;;;;;;-6.52;100.00;97987.88;15274089;19;20007;-61
2022/11/19 22:55:46;;;;;;;15.15;12.70;;;;;;;-6.55;100.00;97988.03;15275890;19;20021;-62
2022/11/19 23:01:17;;;;;;;16.45;13.25;;;;;;;-6.58;100.00;97993.41;15281946;19;20018;-57
2022/11/19 23:06:43;;;;;;;18.95;14.70;;;;;;;-6.57;100.00;97995.09;15282803;19;20117;-60
2022/11/19 23:17:51;;;;;;;20.05;15.98;;;;;;;-6.62;100.00;97993.59;15280052;19;20025;-60
2022/11/19 23:23:15;;;;;;;23.13;16.85;;;;;;;-6.69;100.00;97996.47;15267910;19;20043;-61
2022/11/19 23:28:44;;;;;;;21.30;15.82;;;;;;;-6.71;100.00;97997.44;15280202;19;20017;-61
2022/11/19 23:34:09;;;;;;;24.25;18.17;;;;;;;-6.74;100.00;98003.69;15275920;19;20616;-61
2022/11/19 23:39:34;;;;;;;21.48;16.85;;;;;;;-6.79;100.00;97992.53;15281101;19;20011;-60
2022/11/19 23:45:02;;;;;;;24.88;17.85;;;;;;;-6.81;100.00;97991.72;15274697;19;20018;-60
2022/11/19 23:50:27;;;;;;;21.20;16.33;;;;;;;-6.84;100.00;97976.16;15279537;19;20428;-59
2022/11/19 23:55:59;;;;;;;21.98;16.67;;;;;;;-6.85;100.00;97977.91;15268756;19;20057;-60
